Time;durP1;ratioP1;P1;durP2;ratioP2;P2;SDS_P1;SDS_P2;PMS_P1;PMS_P2;Temp;Humidity;BMP_temperature;BMP_pressure;BME280_temperature;BME280_humidity;BME280_pressure;Samples;Min_cycle;Max_cycle;Signal;HPM_P1;HPM_P2
2021/08/21 00:00:47;;;;;;;5.72;3.45;;;589.00;1510.40;;;;;;5071747;28;20039;-75
2021/08/21 00:03:13;;;;;;;5.95;3.38;;;589.00;1510.40;;;;;;5070553;28;20024;-77
2021/08/21 00:05:39;;;;;;;6.80;3.30;;;589.00;1536.00;;;;;;5072100;28;20044;-78
2021/08/21 00:08:05;;;;;;;6.38;3.08;;;589.00;1510.40;;;;;;5072976;28;20102;-75
2021/08/21 00:10:33;;;;;;;11.23;3.53;;;588.90;1510.40;;;;;;5073046;28;20021;-75
2021/08/21 00:12:59;;;;;;;8.57;3.63;;;588.80;1510.40;;;;;;5071705;28;20543;-78
2021/08/21 00:15:25;;;;;;;9.27;4.28;;;564.10;1561.60;;;;;;5073096;28;20103;-78
2021/08/21 00:17:51;;;;;;;9.60;3.75;;;564.10;1587.20;;;;;;5071726;28;20497;-78
2021/08/21 00:20:18;;;;;;;11.27;4.22;;;564.10;1612.80;;;;;;5072726;28;20032;-75
2021/08/21 00:22:43;;;;;;;8.38;4.00;;;563.80;1638.40;;;;;;5071335;28;20374;-76
2021/08/21 00:25:11;;;;;;;6.47;3.15;;;563.60;1664.00;;;;;;5071410;28;20029;-75
2021/08/21 00:27:37;;;;;;;11.13;4.03;;;563.50;1664.00;;;;;;5072284;28;20028;-75
2021/08/21 00:30:03;;;;;;;10.35;3.10;;;563.50;1664.00;;;;;;5072603;28;20020;-76
2021/08/21 00:32:31;;;;;;;6.63;3.58;;;563.30;1689.60;;;;;;5072455;28;20104;-75
2021/08/21 00:34:57;;;;;;;7.03;3.92;;;538.50;1689.60;;;;;;5075462;28;20122;-75
2021/08/21 00:37:24;;;;;;;8.75;3.75;;;538.50;1689.60;;;;;;5085012;28;20028;-76
2021/08/21 00:39:50;;;;;;;8.95;3.90;;;538.50;1689.60;;;;;;5071141;28;20097;-74
2021/08/21 00:42:17;;;;;;;6.43;3.20;;;538.50;1715.20;;;;;;5072156;28;20013;-75
2021/08/21 00:44:43;;;;;;;7.68;3.28;;;538.40;1715.20;;;;;;5071756;28;20055;-78
2021/08/21 00:47:15;;;;;;;5.20;3.00;;;538.30;1689.60;;;;;;5072179;28;20012;-77
2021/08/21 00:49:43;;;;;;;15.38;4.18;;;538.30;1689.60;;;;;;5069907;28;20100;-75
2021/08/21 00:52:30;;;;;;;8.35;3.17;;;538.40;1689.60;;;;;;5070306;28;20070;-79
2021/08/21 00:54:57;;;;;;;9.82;3.90;;;538.50;1689.60;;;;;;5071458;28;20036;-76
2021/08/21 00:57:27;;;;;;;10.77;3.58;;;538.50;1689.60;;;;;;5072022;28;20021;-76
2021/08/21 00:59:54;;;;;;;8.65;3.35;;;538.40;1689.60;;;;;;5071813;28;20069;-75
2021/08/21 01:02:27;;;;;;;4.88;3.17;;;538.40;1715.20;;;;;;5076187;28;20093;-76
2021/08/21 01:04:57;;;;;;;9.60;3.10;;;538.30;1715.20;;;;;;5082643;28;20077;-78
2021/08/21 01:07:27;;;;;;;5.15;2.58;;;538.20;1740.80;;;;;;5072241;28;20496;-79
2021/08/21 01:09:53;;;;;;;8.85;3.28;;;538.30;1740.80;;;;;;5081119;28;20020;-77
2021/08/21 01:12:22;;;;;;;5.43;3.05;;;538.30;1740.80;;;;;;5071100;28;20123;-79
2021/08/21 01:14:50;;;;;;;8.40;3.25;;;538.40;1740.80;;;;;;5071631;28;20021;-75
2021/08/21 01:17:17;;;;;;;7.95;4.18;;;538.20;1740.80;;;;;;5073051;28;20020;-76
2021/08/21 01:19:45;;;;;;;6.13;3.55;;;538.30;1740.80;;;;;;5075675;28;20020;-77
2021/08/21 01:22:16;;;;;;;5.93;3.20;;;538.20;1715.20;;;;;;5075238;28;20409;-75
2021/08/21 01:24:43;;;;;;;5.38;3.33;;;538.20;1715.20;;;;;;5075817;28;20477;-79
2021/08/21 01:27:27;;;;;;;8.23;3.00;;;538.30;1689.60;;;;;;5074901;28;20491;-79
2021/08/21 01:29:54;;;;;;;7.15;3.50;;;538.20;1689.60;;;;;;5074512;28;20024;-78
2021/08/21 01:32:22;;;;;;;10.77;3.88;;;538.20;1689.60;;;;;;5075699;28;20031;-78
2021/08/21 01:34:49;;;;;;;7.38;3.58;;;538.20;1689.60;;;;;;5075444;28;20028;-75
2021/08/21 01:37:19;;;;;;;6.63;3.30;;;538.10;1689.60;;;;;;5075830;28;20377;-78
2021/08/21 01:39:49;;;;;;;13.02;3.45;;;538.10;1689.60;;;;;;5075325;28;20052;-77
2021/08/21 01:42:15;;;;;;;7.43;3.13;;;538.10;1689.60;;;;;;5075769;28;20016;-79
2021/08/21 01:44:41;;;;;;;6.72;3.75;;;538.20;1689.60;;;;;;5075697;28;20388;-76
2021/08/21 01:47:14;;;;;;;6.57;3.10;;;538.10;1689.60;;;;;;5075901;28;20048;-77
2021/08/21 01:49:43;;;;;;;6.47;4.53;;;538.10;1715.20;;;;;;5073451;28;20028;-79
2021/08/21 01:52:10;;;;;;;9.13;3.63;;;538.00;1715.20;;;;;;5075555;28;20017;-76
2021/08/21 01:54:36;;;;;;;5.82;3.88;;;537.90;1740.80;;;;;;5075605;28;20123;-76
2021/08/21 01:57:05;;;;;;;8.73;3.60;;;537.90;1740.80;;;;;;5075852;28;20029;-79
2021/08/21 01:59:38;;;;;;;7.05;3.65;;;537.80;1740.80;;;;;;5075832;28;20111;-77
2021/08/21 02:02:06;;;;;;;11.77;3.83;;;538.00;1740.80;;;;;;5073845;28;20105;-79
2021/08/21 02:04:32;;;;;;;10.48;4.28;;;538.00;1766.40;;;;;;5075407;28;20505;-77
2021/08/21 02:06:59;;;;;;;9.35;3.83;;;538.00;1766.40;;;;;;5075624;28;20055;-79
2021/08/21 02:09:26;;;;;;;9.25;4.18;;;538.00;1766.40;;;;;;5075421;28;20021;-78
2021/08/21 02:11:53;;;;;;;9.05;4.00;;;538.00;1792.00;;;;;;5075562;28;20028;-79
2021/08/21 02:14:20;;;;;;;6.05;3.65;;;538.00;1792.00;;;;;;5072776;28;20020;-78
2021/08/21 02:16:50;;;;;;;9.52;3.88;;;537.90;1792.00;;;;;;5075231;28;20016;-77
2021/08/21 02:19:16;;;;;;;9.05;4.07;;;537.80;1817.60;;;;;;5073243;28;20016;-78
2021/08/21 02:21:42;;;;;;;9.18;4.25;;;537.70;1843.20;;;;;;5074778;28;20085;-77
2021/08/21 02:24:09;;;;;;;8.10;4.90;;;537.60;1843.20;;;;;;5074873;28;20009;-75
2021/08/21 02:26:40;;;;;;;7.65;4.20;;;537.60;1868.80;;;;;;5073720;28;20107;-76
2021/08/21 02:29:07;;;;;;;7.85;4.45;;;537.60;1868.80;;;;;;5072987;28;20021;-76
2021/08/21 02:31:34;;;;;;;10.05;4.28;;;512.90;1868.80;;;;;;5074867;28;20028;-76
2021/08/21 02:34:02;;;;;;;6.82;3.47;;;512.90;1894.40;;;;;;5070838;28;20390;-76
2021/08/21 02:36:29;;;;;;;12.73;4.35;;;512.80;1894.40;;;;;;5074705;28;20097;-76
2021/08/21 02:38:55;;;;;;;8.88;4.00;;;512.70;1920.00;;;;;;5074728;28;20069;-76
2021/08/21 02:41:21;;;;;;;8.10;4.13;;;512.60;1920.00;;;;;;5074739;28;20020;-77
2021/08/21 02:43:46;;;;;;;13.00;4.70;;;512.60;1920.00;;;;;;5074635;28;20040;-75
2021/08/21 02:46:12;;;;;;;12.32;4.32;;;512.50;1920.00;;;;;;5071693;28;20035;-77
2021/08/21 02:48:38;;;;;;;9.07;4.45;;;512.40;1945.60;;;;;;5074213;28;20028;-78
2021/08/21 02:51:04;;;;;;;13.50;4.13;;;512.40;1945.60;;;;;;5073964;28;20051;-76
2021/08/21 02:53:29;;;;;;;9.25;4.32;;;512.40;1945.60;;;;;;5073958;28;20092;-76
2021/08/21 02:55:56;;;;;;;14.95;4.82;;;512.40;1945.60;;;;;;5074138;28;20044;-77
2021/08/21 02:58:21;;;;;;;13.60;4.85;;;512.40;1971.20;;;;;;5073455;28;20096;-76
2021/08/21 03:00:47;;;;;;;9.20;4.32;;;512.30;1971.20;;;;;;5074604;28;20457;-79
2021/08/21 03:03:13;;;;;;;8.23;4.50;;;512.40;1971.20;;;;;;5074287;28;20083;-77
2021/08/21 03:05:39;;;;;;;10.25;4.72;;;512.50;1945.60;;;;;;5074017;28;20124;-75
2021/08/21 03:08:05;;;;;;;13.77;5.25;;;512.30;1971.20;;;;;;5074172;28;20366;-75
2021/08/21 03:10:32;;;;;;;11.00;4.60;;;512.30;1971.20;;;;;;5074085;28;20024;-78
2021/08/21 03:12:58;;;;;;;10.00;4.13;;;512.50;1971.20;;;;;;5073604;28;20070;-78
2021/08/21 03:15:24;;;;;;;8.55;4.60;;;512.50;1945.60;;;;;;5073791;28;20024;-79
2021/08/21 03:17:51;;;;;;;11.15;4.88;;;512.50;1945.60;;;;;;5073648;28;20016;-76
2021/08/21 03:20:17;;;;;;;8.98;4.38;;;512.70;1920.00;;;;;;5073395;28;20465;-77
2021/08/21 03:22:46;;;;;;;10.27;4.78;;;512.70;1920.00;;;;;;5073346;28;20017;-77
2021/08/21 03:25:12;;;;;;;9.50;5.25;;;512.80;1920.00;;;;;;5072968;28;20017;-77
2021/08/21 03:27:37;;;;;;;11.65;5.60;;;512.50;1945.60;;;;;;5072797;28;20036;-75
2021/08/21 03:30:05;;;;;;;8.13;5.30;;;512.50;1945.60;;;;;;5071981;28;20020;-76
2021/08/21 03:32:31;;;;;;;11.32;5.05;;;512.60;1920.00;;;;;;5072462;28;20024;-77
2021/08/21 03:34:57;;;;;;;14.05;4.70;;;512.50;1920.00;;;;;;5072212;28;20021;-77
2021/08/21 03:37:23;;;;;;;12.98;4.85;;;512.10;1971.20;;;;;;5072230;28;20025;-78
2021/08/21 03:39:48;;;;;;;14.43;5.35;;;512.00;1971.20;;;;;;5073403;28;20382;-79
2021/08/21 03:42:15;;;;;;;13.82;5.65;;;512.00;1971.20;;;;;;5072233;28;20039;-77
2021/08/21 03:44:42;;;;;;;12.55;5.00;;;512.20;1945.60;;;;;;5069865;28;20111;-76
2021/08/21 03:47:08;;;;;;;9.23;5.03;;;512.30;1945.60;;;;;;5072256;28;20025;-78
2021/08/21 03:49:34;;;;;;;14.30;5.70;;;512.20;1945.60;;;;;;5070350;28;20385;-77
2021/08/21 03:52:00;;;;;;;7.53;5.00;;;512.40;1920.00;;;;;;5071953;28;20016;-77
2021/08/21 03:54:25;;;;;;;11.88;4.65;;;512.30;1945.60;;;;;;5071759;28;20566;-76
2021/08/21 03:56:51;;;;;;;8.82;4.57;;;512.40;1920.00;;;;;;5072097;28;20123;-78
2021/08/21 03:59:17;;;;;;;8.45;4.97;;;512.50;1920.00;;;;;;5071958;28;20055;-78
2021/08/21 04:01:43;;;;;;;14.23;5.05;;;512.60;1894.40;;;;;;5072939;28;20024;-76
2021/08/21 04:04:09;;;;;;;10.93;5.05;;;512.50;1894.40;;;;;;5071341;28;20032;-76
2021/08/21 04:06:40;;;;;;;9.10;4.63;;;512.40;1894.40;;;;;;5073211;28;20032;-77
2021/08/21 04:09:06;;;;;;;10.35;4.85;;;512.40;1920.00;;;;;;5070858;28;20021;-76
2021/08/21 04:11:32;;;;;;;9.48;4.70;;;512.40;1920.00;;;;;;5072892;28;20073;-76
2021/08/21 04:13:58;;;;;;;16.27;5.32;;;512.30;1920.00;;;;;;5072958;28;20436;-75
2021/08/21 04:16:24;;;;;;;13.25;5.25;;;512.40;1920.00;;;;;;5073585;28;20095;-76
2021/08/21 04:18:49;;;;;;;13.68;5.63;;;512.60;1894.40;;;;;;5072857;28;20059;-77
2021/08/21 04:21:15;;;;;;;11.18;5.40;;;512.80;1868.80;;;;;;5072554;28;20119;-77
2021/08/21 04:23:41;;;;;;;15.13;5.53;;;512.80;1868.80;;;;;;5072813;28;20445;-75
2021/08/21 04:26:07;;;;;;;14.73;5.68;;;512.90;1868.80;;;;;;5072694;28;20032;-76
2021/08/21 04:28:32;;;;;;;17.77;4.95;;;512.90;1868.80;;;;;;5072739;28;20359;-76
2021/08/21 04:30:58;;;;;;;9.20;4.93;;;512.80;1894.40;;;;;;5072865;28;20028;-75
2021/08/21 04:33:24;;;;;;;12.00;5.43;;;512.70;1894.40;;;;;;5070155;28;20099;-79
2021/08/21 04:35:51;;;;;;;14.45;5.97;;;512.60;1920.00;;;;;;5072498;28;20532;-76
2021/08/21 04:38:18;;;;;;;12.00;5.28;;;512.70;1894.40;;;;;;5071607;28;20024;-76
2021/08/21 04:40:46;;;;;;;11.85;4.45;;;512.80;1894.40;;;;;;5072531;28;20020;-78
2021/08/21 04:43:13;;;;;;;16.17;5.35;;;512.70;1894.40;;;;;;5071509;28;20028;-78
2021/08/21 04:45:38;;;;;;;12.05;5.13;;;512.50;1894.40;;;;;;5072286;28;20036;-77
2021/08/21 04:48:04;;;;;;;10.50;4.78;;;512.70;1894.40;;;;;;5072542;28;20091;-77
2021/08/21 04:50:30;;;;;;;14.48;5.05;;;512.70;1894.40;;;;;;5072219;28;20024;-75
2021/08/21 04:52:56;;;;;;;14.38;5.65;;;512.70;1894.40;;;;;;5070679;28;20150;-76
2021/08/21 04:55:22;;;;;;;15.02;5.13;;;512.60;1894.40;;;;;;5072158;28;20048;-79
2021/08/21 04:57:50;;;;;;;14.27;5.65;;;512.70;1894.40;;;;;;5072577;28;20017;-75
2021/08/21 05:00:16;;;;;;;13.45;5.40;;;512.80;1894.40;;;;;;5072525;28;20081;-75
2021/08/21 05:02:41;;;;;;;15.07;5.45;;;512.90;1894.40;;;;;;5072415;28;20024;-78
2021/08/21 05:05:07;;;;;;;16.63;5.93;;;537.60;1894.40;;;;;;5072274;28;20059;-78
2021/08/21 05:07:33;;;;;;;14.88;6.18;;;538.10;1894.40;;;;;;5072450;28;20105;-76
2021/08/21 05:09:59;;;;;;;14.48;7.43;;;537.70;1894.40;;;;;;5072207;28;20053;-75
2021/08/21 05:12:25;;;;;;;19.25;6.72;;;537.70;1868.80;;;;;;5072226;28;20020;-76
2021/08/21 05:14:50;;;;;;;23.33;6.97;;;537.80;1868.80;;;;;;5070490;28;20025;-75
2021/08/21 05:17:16;;;;;;;15.55;6.88;;;537.70;1868.80;;;;;;5070206;28;20027;-75
2021/08/21 05:19:49;;;;;;;42.08;26.02;;;537.80;1894.40;;;;;;5070286;28;20040;-77
2021/08/21 05:22:24;;;;;;;40.58;21.48;;;538.00;1843.20;;;;;;5070126;28;20023;-79
2021/08/21 05:24:51;;;;;;;27.98;11.65;;;538.00;1817.60;;;;;;5068190;28;20021;-77
2021/08/21 05:27:18;;;;;;;49.25;28.15;;;538.20;1792.00;;;;;;5070227;28;20114;-76
2021/08/21 05:29:44;;;;;;;30.48;14.40;;;538.10;1792.00;;;;;;5071762;28;20032;-78
2021/08/21 05:32:10;;;;;;;26.33;8.18;;;538.00;1766.40;;;;;;5072314;28;20024;-80
2021/08/21 05:34:36;;;;;;;29.52;7.78;;;538.30;1740.80;;;;;;5072518;28;20020;-77
2021/08/21 05:37:02;;;;;;;27.80;6.70;;;538.20;1766.40;;;;;;5072647;28;20035;-76
2021/08/21 05:39:28;;;;;;;27.98;7.43;;;538.30;1792.00;;;;;;5072651;28;20028;-76
2021/08/21 05:41:53;;;;;;;21.45;7.47;;;538.40;1792.00;;;;;;5072482;28;20432;-75
2021/08/21 05:44:19;;;;;;;25.60;6.32;;;563.20;1817.60;;;;;;5072504;28;20397;-80
2021/08/21 05:46:45;;;;;;;18.45;5.93;;;563.30;1792.00;;;;;;5072256;28;20029;-79
2021/08/21 05:49:11;;;;;;;17.15;5.80;;;563.30;1792.00;;;;;;5072312;28;20012;-75
2021/08/21 05:51:36;;;;;;;10.90;5.28;;;563.30;1740.80;;;;;;5072009;28;20031;-78
2021/08/21 05:54:02;;;;;;;13.38;4.90;;;563.40;1766.40;;;;;;5072116;28;20521;-75
2021/08/21 05:56:28;;;;;;;8.85;4.70;;;563.60;1740.80;;;;;;5072048;28;20515;-77
2021/08/21 05:58:54;;;;;;;12.27;5.10;;;563.60;1715.20;;;;;;5072260;28;20025;-79
2021/08/21 06:01:20;;;;;;;13.40;4.75;;;563.60;1740.80;;;;;;5071267;28;20455;-79
2021/08/21 06:03:45;;;;;;;16.27;5.00;;;563.90;1740.80;;;;;;5072698;28;20037;-75
2021/08/21 06:06:12;;;;;;;9.82;4.10;;;564.00;1715.20;;;;;;5075700;28;20051;-75
2021/08/21 06:08:39;;;;;;;8.52;4.00;;;564.10;1740.80;;;;;;5074539;28;20032;-76
2021/08/21 06:11:05;;;;;;;12.13;3.92;;;564.10;1715.20;;;;;;5074304;28;20028;-78
2021/08/21 06:13:30;;;;;;;12.48;5.07;;;588.80;1715.20;;;;;;5075741;28;20027;-74
2021/08/21 06:15:56;;;;;;;12.07;5.28;;;588.80;1715.20;;;;;;5075595;28;20048;-77
2021/08/21 06:18:22;;;;;;;12.00;4.57;;;588.90;1664.00;;;;;;5075605;28;20042;-77
2021/08/21 06:20:48;;;;;;;14.45;5.20;;;588.90;1664.00;;;;;;5075267;28;20469;-76
2021/08/21 06:23:14;;;;;;;11.00;4.90;;;589.00;1664.00;;;;;;5075396;28;20021;-76
2021/08/21 06:25:40;;;;;;;15.27;8.23;;;589.20;1664.00;;;;;;5075231;28;20039;-78
2021/08/21 06:28:05;;;;;;;18.88;8.73;;;589.20;1638.40;;;;;;5075281;28;20033;-76
2021/08/21 06:30:32;;;;;;;17.80;7.68;;;589.40;1638.40;;;;;;5075559;28;20063;-77
2021/08/21 06:32:58;;;;;;;16.95;6.28;;;589.40;1664.00;;;;;;5075328;28;20020;-76
2021/08/21 06:35:24;;;;;;;19.20;6.90;;;589.60;1664.00;;;;;;5075002;28;20382;-76
2021/08/21 06:37:49;;;;;;;20.75;6.68;;;589.60;1638.40;;;;;;5073947;28;20033;-76
2021/08/21 06:40:15;;;;;;;17.75;5.88;;;589.70;1638.40;;;;;;5075158;28;20033;-76
2021/08/21 06:42:41;;;;;;;17.95;6.15;;;614.40;1612.80;;;;;;5075299;28;20024;-76
2021/08/21 06:45:08;;;;;;;20.85;5.30;;;614.60;1587.20;;;;;;5075094;28;20508;-75
2021/08/21 06:47:34;;;;;;;18.50;5.45;;;614.70;1587.20;;;;;;5075086;28;20028;-78
2021/08/21 06:50:01;;;;;;;27.42;5.15;;;614.80;1587.20;;;;;;5074724;28;20040;-76
2021/08/21 06:52:27;;;;;;;16.75;5.78;;;614.90;1561.60;;;;;;5074809;28;20016;-76
2021/08/21 06:54:52;;;;;;;13.30;5.28;;;615.00;1536.00;;;;;;5074660;28;20383;-77
2021/08/21 06:57:18;;;;;;;11.80;4.75;;;615.20;1536.00;;;;;;5074734;28;20070;-78
2021/08/21 06:59:44;;;;;;;12.05;4.25;;;615.30;1510.40;;;;;;5074831;28;20435;-75
2021/08/21 07:02:10;;;;;;;7.20;4.35;;;615.30;1484.80;;;;;;5074930;28;20045;-77
2021/08/21 07:04:35;;;;;;;10.20;4.63;;;640.10;1459.20;;;;;;5074664;28;20477;-75
2021/08/21 07:07:02;;;;;;;7.68;3.67;;;640.30;1459.20;;;;;;5073369;28;20064;-76
2021/08/21 07:09:28;;;;;;;7.78;4.60;;;640.40;1433.60;;;;;;5074695;28;20048;-75
2021/08/21 07:11:54;;;;;;;11.55;4.32;;;640.40;1433.60;;;;;;5074566;28;20063;-75
2021/08/21 07:14:20;;;;;;;10.02;3.88;;;640.50;1433.60;;;;;;5074375;28;20020;-75
2021/08/21 07:16:46;;;;;;;7.20;3.78;;;640.70;1408.00;;;;;;5074406;28;20078;-74
2021/08/21 07:19:11;;;;;;;9.68;4.13;;;640.80;1382.40;;;;;;5074452;28;20021;-76
2021/08/21 07:21:37;;;;;;;8.10;4.40;;;665.60;1433.60;;;;;;5073390;28;20079;-78
2021/08/21 07:24:03;;;;;;;10.52;4.28;;;665.70;1408.00;;;;;;5074018;28;20087;-78
2021/08/21 07:26:29;;;;;;;6.50;3.75;;;666.00;1382.40;;;;;;5073713;28;20032;-77
2021/08/21 07:28:55;;;;;;;5.90;3.63;;;666.00;1382.40;;;;;;5073726;28;20012;-78
2021/08/21 07:31:20;;;;;;;7.07;3.78;;;666.20;1356.80;;;;;;5073792;28;20077;-76
2021/08/21 07:33:46;;;;;;;11.02;4.63;;;666.30;1356.80;;;;;;5074085;28;20029;-76
2021/08/21 07:36:12;;;;;;;10.10;3.63;;;666.50;1356.80;;;;;;5073527;28;20497;-78
2021/08/21 07:38:38;;;;;;;14.13;4.40;;;666.50;1331.20;;;;;;5073536;28;20028;-77
2021/08/21 07:41:04;;;;;;;9.82;3.65;;;691.30;1356.80;;;;;;5072464;28;20021;-79
2021/08/21 07:43:29;;;;;;;10.30;4.47;;;691.30;1356.80;;;;;;5073532;28;20507;-78
2021/08/21 07:45:55;;;;;;;13.02;4.63;;;691.60;1305.60;;;;;;5073362;28;20093;-76
2021/08/21 07:48:22;;;;;;;8.90;4.20;;;691.60;1331.20;;;;;;5073452;28;20020;-78
2021/08/21 07:50:47;;;;;;;11.40;3.97;;;691.70;1305.60;;;;;;5071855;28;20223;-75
2021/08/21 07:53:13;;;;;;;8.77;3.85;;;691.80;1280.00;;;;;;5073479;28;20076;-82
2021/08/21 07:55:39;;;;;;;15.43;4.38;;;691.80;1280.00;;;;;;5073741;28;20444;-77
2021/08/21 07:58:06;;;;;;;11.85;3.15;;;691.90;1280.00;;;;;;5073693;28;20021;-80
2021/08/21 08:00:33;;;;;;;8.95;3.83;;;692.00;1280.00;;;;;;5074153;28;20028;-86
2021/08/21 08:02:59;;;;;;;10.52;4.05;;;692.00;1280.00;;;;;;5073836;28;20056;-79
2021/08/21 08:05:26;;;;;;;7.28;4.75;;;692.10;1280.00;;;;;;5073811;28;20146;-81
2021/08/21 08:07:51;;;;;;;11.43;4.18;;;716.80;1228.80;;;;;;5073324;28;20516;-78
2021/08/21 08:10:17;;;;;;;9.38;4.28;;;716.80;1228.80;;;;;;5073887;28;20051;-78
2021/08/21 08:12:43;;;;;;;5.65;3.50;;;716.90;1228.80;;;;;;5073883;28;20047;-77
2021/08/21 08:15:10;;;;;;;8.05;3.22;;;716.90;1228.80;;;;;;5073582;28;20099;-78
2021/08/21 08:17:36;;;;;;;9.35;3.47;;;716.90;1254.40;;;;;;5073680;28;20025;-75
2021/08/21 08:20:06;;;;;;;7.50;3.42;;;717.00;1203.20;;;;;;5072907;28;20016;-77
2021/08/21 08:22:32;;;;;;;6.25;2.85;;;717.10;1203.20;;;;;;5072947;28;20093;-80
2021/08/21 08:24:57;;;;;;;9.82;2.95;;;717.10;1203.20;;;;;;5072975;28;20469;-79
2021/08/21 08:27:23;;;;;;;9.40;3.13;;;717.10;1177.60;;;;;;5069422;28;20032;-79
2021/08/21 08:29:49;;;;;;;4.88;2.78;;;717.10;1177.60;;;;;;5072894;28;20416;-78
2021/08/21 08:32:15;;;;;;;10.65;3.15;;;717.20;1177.60;;;;;;5072288;28;20016;-78
2021/08/21 08:34:41;;;;;;;8.02;3.47;;;717.20;1177.60;;;;;;5072723;28;20365;-79
2021/08/21 08:37:09;;;;;;;7.25;2.50;;;717.40;1177.60;;;;;;5071360;28;20040;-75
2021/08/21 08:39:36;;;;;;;6.40;2.72;;;717.40;1177.60;;;;;;5073063;28;20013;-78
2021/08/21 08:42:02;;;;;;;6.78;3.10;;;717.50;1177.60;;;;;;5072280;28;20021;-80
2021/08/21 08:44:32;;;;;;;5.63;2.67;;;717.50;1177.60;;;;;;5072367;28;20099;-77
2021/08/21 08:47:00;;;;;;;4.00;2.67;;;717.50;1152.00;;;;;;5072634;28;20024;-76
2021/08/21 08:49:27;;;;;;;4.55;2.50;;;717.50;1126.40;;;;;;5070118;28;20020;-77
2021/08/21 08:51:53;;;;;;;6.55;3.17;;;717.50;1126.40;;;;;;5072016;28;20095;-77
2021/08/21 08:54:19;;;;;;;6.80;2.60;;;717.50;1152.00;;;;;;5072212;28;20048;-75
2021/08/21 08:56:45;;;;;;;9.73;3.10;;;717.70;1203.20;;;;;;5071496;28;20036;-82
2021/08/21 08:59:12;;;;;;;3.53;2.53;;;717.70;1152.00;;;;;;5072617;28;20048;-77
2021/08/21 09:01:42;;;;;;;4.50;2.55;;;717.70;1152.00;;;;;;5072442;28;20384;-77
2021/08/21 09:04:14;;;;;;;15.93;3.20;;;742.40;1152.00;;;;;;5070201;28;20028;-77
2021/08/21 09:06:40;;;;;;;5.53;2.63;;;742.40;1177.60;;;;;;5072119;28;20037;-76
2021/08/21 09:09:14;;;;;;;5.50;2.70;;;742.50;1152.00;;;;;;5072888;28;20032;-78
2021/08/21 09:11:42;;;;;;;5.97;2.67;;;742.50;1177.60;;;;;;5071662;28;20046;-77
2021/08/21 09:14:29;;;;;;;3.70;2.35;;;742.60;1152.00;;;;;;5072230;28;20026;-83
2021/08/21 09:17:13;;;;;;;7.00;2.80;;;742.60;1152.00;;;;;;5069867;28;20095;-78
2021/08/21 09:19:39;;;;;;;4.78;2.90;;;742.80;1152.00;;;;;;5070352;28;20019;-79
2021/08/21 09:22:06;;;;;;;6.38;3.20;;;742.80;1152.00;;;;;;5072389;28;20451;-76
2021/08/21 09:24:34;;;;;;;7.75;3.28;;;742.90;1152.00;;;;;;5072832;28;20129;-79
2021/08/21 09:27:18;;;;;;;4.88;3.13;;;742.90;1177.60;;;;;;5071045;28;20068;-77
2021/08/21 09:29:45;;;;;;;6.05;3.05;;;743.00;1126.40;;;;;;5071931;28;20028;-78
2021/08/21 09:32:11;;;;;;;5.20;3.10;;;743.10;1152.00;;;;;;5072235;28;20016;-76
2021/08/21 09:34:37;;;;;;;7.80;2.92;;;743.10;1126.40;;;;;;5071632;28;20029;-78
2021/08/21 09:37:06;;;;;;;4.45;3.00;;;743.20;1100.80;;;;;;5071966;28;20080;-78
2021/08/21 09:39:41;;;;;;;5.13;2.75;;;743.30;1100.80;;;;;;5075401;28;20050;-77
2021/08/21 09:42:09;;;;;;;6.93;3.55;;;743.20;1075.20;;;;;;5069929;28;20056;-77
2021/08/21 09:44:41;;;;;;;6.53;3.45;;;743.30;1100.80;;;;;;5075188;28;20099;-76
2021/08/21 09:47:10;;;;;;;5.32;3.50;;;768.00;1126.40;;;;;;5075358;28;20580;-76
2021/08/21 09:49:36;;;;;;;6.70;3.50;;;768.10;1100.80;;;;;;5075522;28;20081;-79
2021/08/21 09:52:05;;;;;;;6.63;3.40;;;768.40;1075.20;;;;;;5075392;28;20021;-79
2021/08/21 09:54:31;;;;;;;5.25;3.05;;;768.40;1049.60;;;;;;5075477;28;20032;-79
2021/08/21 09:56:57;;;;;;;6.25;2.75;;;768.50;1049.60;;;;;;5074667;28;20028;-77
2021/08/21 09:59:43;;;;;;;6.00;3.08;;;768.50;1075.20;;;;;;5076178;28;20050;-78
2021/08/21 10:02:13;;;;;;;5.10;3.00;;;768.70;1075.20;;;;;;5075986;28;20107;-79
2021/08/21 10:04:42;;;;;;;6.82;3.05;;;793.70;1049.60;;;;;;5075639;28;20025;-75
2021/08/21 10:07:14;;;;;;;11.82;3.42;;;793.70;1100.80;;;;;;5075910;28;20068;-78
2021/08/21 10:09:40;;;;;;;5.45;2.83;;;793.70;1075.20;;;;;;5073288;28;20017;-78
2021/08/21 10:12:08;;;;;;;4.50;2.95;;;793.60;1049.60;;;;;;5074455;28;20379;-77
2021/08/21 10:14:34;;;;;;;4.88;3.22;;;793.60;1075.20;;;;;;5075215;28;20055;-77
2021/08/21 10:17:01;;;;;;;5.50;3.13;;;793.70;1100.80;;;;;;5075314;28;20031;-79
2021/08/21 10:19:27;;;;;;;8.43;4.30;;;793.80;1049.60;;;;;;5074371;28;20024;-79
2021/08/21 10:21:56;;;;;;;7.43;3.13;;;794.00;1075.20;;;;;;5075542;28;20377;-78
2021/08/21 10:24:36;;;;;;;8.15;3.10;;;794.20;1049.60;;;;;;5075425;28;20025;-75
2021/08/21 10:27:26;;;;;;;5.47;3.13;;;794.40;1024.00;;;;;;5074513;28;20044;-77
2021/08/21 10:30:01;;;;;;;6.20;3.20;;;794.30;1024.00;;;;;;5075295;28;20505;-77
2021/08/21 10:32:41;;;;;;;6.30;3.03;;;794.50;1024.00;;;;;;5075354;28;20527;-78
2021/08/21 10:35:09;;;;;;;5.47;2.50;;;819.30;1024.00;;;;;;5075190;28;20028;-75
2021/08/21 10:37:46;;;;;;;6.20;2.97;;;819.50;998.40;;;;;;5075261;28;20037;-76
2021/08/21 10:40:26;;;;;;;6.18;3.30;;;819.60;998.40;;;;;;5074084;28;20052;-75
2021/08/21 10:42:56;;;;;;;4.53;2.85;;;819.70;972.80;;;;;;5073321;28;20032;-76
2021/08/21 10:45:41;;;;;;;8.27;3.00;;;819.70;998.40;;;;;;5074430;28;20024;-79
2021/08/21 10:48:11;;;;;;;6.68;3.13;;;819.30;998.40;;;;;;5072032;28;20024;-75
2021/08/21 10:50:44;;;;;;;5.03;3.08;;;794.50;998.40;;;;;;5071444;28;20025;-80
2021/08/21 10:53:26;;;;;;;5.28;3.83;;;794.50;1024.00;;;;;;5074234;28;20024;-80
2021/08/21 10:55:52;;;;;;;7.65;3.63;;;819.70;1024.00;;;;;;5074260;28;20127;-77
2021/08/21 10:58:24;;;;;;;4.80;3.35;;;845.70;947.20;;;;;;5073601;28;20032;-83
2021/08/21 11:01:03;;;;;;;4.78;3.45;;;870.40;921.60;;;;;;5074796;28;20024;-80
2021/08/21 11:03:28;;;;;;;5.03;3.40;;;870.80;896.00;;;;;;5073692;28;20022;-79
2021/08/21 11:06:03;;;;;;;10.55;3.80;;;871.30;896.00;;;;;;5074529;28;20119;-82
2021/08/21 11:08:31;;;;;;;7.07;2.95;;;870.90;870.40;;;;;;5074537;28;20012;-79
2021/08/21 11:11:37;;;;;;;4.65;3.15;;;870.90;870.40;;;;;;5070936;28;20062;-75
2021/08/21 11:14:21;;;;;;;9.15;3.15;;;871.30;870.40;;;;;;5030818;28;20025;-82
2021/08/21 11:17:01;;;;;;;5.32;3.10;;;871.10;870.40;;;;;;5033022;28;20029;-80
2021/08/21 11:19:47;;;;;;;5.30;3.10;;;871.30;870.40;;;;;;5032373;28;20125;-80
2021/08/21 11:22:20;;;;;;;3.75;2.70;;;896.00;844.80;;;;;;5009598;28;20025;-85
2021/08/21 11:24:52;;;;;;;6.18;3.05;;;896.50;870.40;;;;;;5014999;28;20116;-79
2021/08/21 11:27:28;;;;;;;5.00;2.95;;;896.90;870.40;;;;;;5032321;28;20044;-83
2021/08/21 11:30:09;;;;;;;5.32;3.08;;;896.20;870.40;;;;;;5032491;28;20475;-85
2021/08/21 11:32:49;;;;;;;6.65;3.58;;;896.90;844.80;;;;;;5032648;28;20104;-82
2021/08/21 11:35:17;;;;;;;5.45;3.00;;;896.00;870.40;;;;;;5031910;28;20037;-82
2021/08/21 11:38:03;;;;;;;4.80;3.40;;;870.80;870.40;;;;;;5031686;28;20124;-81
2021/08/21 11:40:38;;;;;;;5.85;3.63;;;871.20;870.40;;;;;;5031124;28;20025;-81
2021/08/21 11:43:06;;;;;;;4.60;3.10;;;896.40;870.40;;;;;;5031917;28;20033;-82
2021/08/21 11:45:32;;;;;;;5.10;3.40;;;896.60;870.40;;;;;;5031772;28;20459;-82
2021/08/21 11:47:58;;;;;;;6.25;2.95;;;896.80;844.80;;;;;;5031298;28;20033;-82
2021/08/21 11:50:29;;;;;;;5.97;2.97;;;871.30;870.40;;;;;;5054466;28;20059;-82
2021/08/21 11:52:56;;;;;;;5.25;3.15;;;871.00;896.00;;;;;;5073541;28;20026;-78
2021/08/21 11:55:24;;;;;;;5.28;3.47;;;870.90;896.00;;;;;;5073211;28;20044;-83
2021/08/21 11:57:50;;;;;;;5.90;3.28;;;871.00;896.00;;;;;;5073647;28;20474;-82
2021/08/21 12:00:25;;;;;;;9.70;3.28;;;871.10;896.00;;;;;;5073736;28;20470;-82
2021/08/21 12:02:58;;;;;;;7.80;3.50;;;870.90;921.60;;;;;;5071343;28;20168;-77
2021/08/21 12:05:30;;;;;;;6.93;3.47;;;870.60;921.60;;;;;;5073978;28;20043;-82
2021/08/21 12:08:13;;;;;;;9.77;4.22;;;845.60;921.60;;;;;;5073930;28;20025;-77
2021/08/21 12:11:12;;;;;;;8.13;3.40;;;845.30;947.20;;;;;;5072333;28;20108;-81
2021/08/21 12:13:39;;;;;;;5.55;3.88;;;845.00;947.20;;;;;;5068261;28;20037;-80
2021/08/21 12:16:06;;;;;;;5.00;3.08;;;845.30;972.80;;;;;;5073294;28;20013;-84
2021/08/21 12:18:39;;;;;;;6.35;3.20;;;845.10;947.20;;;;;;5073569;28;20029;-82
2021/08/21 12:21:07;;;;;;;5.43;3.40;;;820.10;972.80;;;;;;5073024;28;20016;-82